首页
METAR-TAF:

METAR-TAF

机场 :

邁亞密國際機場

迈阿密, 佛罗里达州, 美国

纬度: 25-47-26N, 经度: 080-18-59W, 海拔: 3米

当前天气观测

该预报发布于23分钟前的01:53 UTC
风速9节,风向西转西南
温度 27°C
湿度 66%
气压 1014 hPa
能見度: 16.1公里
天空无云

METAR: KMIA 090153Z 24009KT 10SM CLR 27/20 A2995 RMK AO2 SLP141 T02670200

时间: 22:16 (02:16 UTC)

预报

该预报发布于2小时和19分钟前的23:57 UTC
预报有效从09日的 00点(UTC)到 10日的 06点(UTC)
风速11节,风向南转南东
能見度: 10公里
散云层高于5000英尺
从 09日的 0200点(UTC)
风速5节,风向西南
能見度: 10公里
少量云层高于25000英尺
从 09日的 1000点(UTC)
风速8节,风向西
能見度: 10公里
少量云层高于25000英尺
从 09日的 1700点(UTC)
风速12节,风向西转西南,有时为21节阵风
能見度: 10公里
少量云层高于25000英尺
从 10日的 0000点(UTC)
风速9节,风向西
能見度: 10公里
少量云层高于25000英尺

TAF: KMIA 082357Z 0900/1006 16011KT P6SM SCT050 FM090200 23005KT P6SM FEW250 FM091000 26008KT P6SM FEW250 FM091700 25012G21KT P6SM FEW250 FM100000 26009KT P6SM FEW250

超过4000个机场的气象观测和天气预报(METAR&TAF报告)。

可查询的气象台以黄色和红色小点在地图上表示。

将鼠标移到小点上方,可查看气象台名称。

然后点击查看天气观测和预报。

如需切换地图:点击带黑十字的绿色按钮放大地图;点击带横线的绿色按钮缩小地图;或者点击绿色箭头查看邻近地区的地图。


METAR-TAF: